createdAt,value
2018-09-13T00:00:28.904Z,15.29
2018-09-13T00:01:28.937Z,15.31
2018-09-13T00:02:28.978Z,15.31
2018-09-13T00:03:29.025Z,15.28
2018-09-13T00:04:29.062Z,15.29
2018-09-13T00:05:29.103Z,15.25
2018-09-13T00:06:29.144Z,15.34
2018-09-13T00:07:29.187Z,15.34
2018-09-13T00:08:29.226Z,15.34
2018-09-13T00:09:29.267Z,15.29
2018-09-13T00:10:29.308Z,15.38
2018-09-13T00:11:29.348Z,15.34
2018-09-13T00:12:29.390Z,15.43
2018-09-13T00:13:29.429Z,15.49
2018-09-13T00:14:29.469Z,15.50
2018-09-13T00:15:29.512Z,15.62
2018-09-13T00:16:29.556Z,15.50
2018-09-13T00:17:29.594Z,15.71
2018-09-13T00:18:29.635Z,15.64
2018-09-13T00:19:29.675Z,15.71
2018-09-13T00:20:29.726Z,15.78
2018-09-13T00:21:29.757Z,15.80
2018-09-13T00:22:29.800Z,15.82
2018-09-13T00:23:29.842Z,15.89
2018-09-13T00:24:29.881Z,15.89
2018-09-13T00:25:29.923Z,15.94
2018-09-13T00:26:29.964Z,16.01
2018-09-13T00:27:30.005Z,16.04
2018-09-13T00:28:30.048Z,16.01
2018-09-13T00:29:30.088Z,16.04
2018-09-13T00:30:30.129Z,16.00
2018-09-13T00:31:30.169Z,15.96
2018-09-13T00:32:30.213Z,15.97
2018-09-13T00:33:30.252Z,16.04
2018-09-13T00:34:30.293Z,15.97
2018-09-13T00:35:30.337Z,16.04
2018-09-13T00:36:30.376Z,16.05
2018-09-13T00:37:30.416Z,16.04
2018-09-13T00:38:30.459Z,16.07
2018-09-13T00:39:30.499Z,16.08
2018-09-13T00:40:30.545Z,16.07
2018-09-13T00:41:30.580Z,16.08
2018-09-13T00:42:30.625Z,16.07
2018-09-13T00:43:30.663Z,16.15
2018-09-13T00:44:30.705Z,16.12
2018-09-13T00:45:30.745Z,16.05
2018-09-13T00:46:30.787Z,16.07
2018-09-13T00:47:30.829Z,16.14
2018-09-13T00:48:30.870Z,16.09
2018-09-13T00:49:30.911Z,16.21
2018-09-13T00:50:30.953Z,16.09
2018-09-13T00:51:30.993Z,16.12
2018-09-13T00:52:31.039Z,16.14
2018-09-13T00:53:31.076Z,16.11
2018-09-13T00:54:31.118Z,16.15
2018-09-13T00:55:31.157Z,16.12
2018-09-13T00:56:31.199Z,16.11
2018-09-13T00:57:31.239Z,16.15
2018-09-13T00:58:31.281Z,16.17
2018-09-13T00:59:31.322Z,16.28
2018-09-13T01:00:31.366Z,16.25
2018-09-13T01:01:31.405Z,16.31
2018-09-13T01:02:31.447Z,16.21
2018-09-13T01:03:31.489Z,16.30
2018-09-13T01:04:31.532Z,16.28
2018-09-13T01:05:31.592Z,16.38
2018-09-13T01:06:31.610Z,16.33
2018-09-13T01:07:31.655Z,16.42
2018-09-13T01:08:31.693Z,16.43
2018-09-13T01:09:31.734Z,16.34
2018-09-13T01:10:31.774Z,16.45
2018-09-13T01:11:31.816Z,16.45
2018-09-13T01:12:31.858Z,16.39
2018-09-13T01:13:31.900Z,16.42
2018-09-13T01:14:31.943Z,16.35
2018-09-13T01:15:31.982Z,16.42
2018-09-13T01:16:32.028Z,16.43
2018-09-13T01:17:32.064Z,16.42
2018-09-13T01:18:32.115Z,16.31
2018-09-13T01:19:32.148Z,16.42
2018-09-13T01:20:32.188Z,16.43
2018-09-13T01:21:32.228Z,16.42
2018-09-13T01:22:32.269Z,16.42
2018-09-13T01:23:32.313Z,16.41
2018-09-13T01:24:32.355Z,16.41
2018-09-13T01:25:32.404Z,16.45
2018-09-13T01:26:32.435Z,16.42
2018-09-13T01:27:32.478Z,16.48
2018-09-13T01:28:32.519Z,16.48
2018-09-13T01:29:32.561Z,16.50
2018-09-13T01:30:32.609Z,16.39
2018-09-13T01:31:32.643Z,16.42
2018-09-13T01:32:32.686Z,16.56
2018-09-13T01:33:32.731Z,16.52
2018-09-13T01:34:32.766Z,16.48
2018-09-13T01:35:32.811Z,16.48
2018-09-13T01:36:32.851Z,16.43
2018-09-13T01:37:32.891Z,16.46
2018-09-13T01:38:32.931Z,16.52
2018-09-13T01:39:32.974Z,16.46
2018-09-13T01:40:33.015Z,16.52
2018-09-13T01:41:33.054Z,16.50
2018-09-13T01:42:33.097Z,16.50
2018-09-13T01:43:33.137Z,16.52
2018-09-13T01:44:33.179Z,16.53
2018-09-13T01:45:33.219Z,16.49
2018-09-13T01:46:33.284Z,16.45
2018-09-13T01:47:33.303Z,16.48
2018-09-13T01:48:33.344Z,16.56
2018-09-13T01:49:33.385Z,16.52
2018-09-13T01:50:33.426Z,16.56
2018-09-13T01:51:33.470Z,16.52
2018-09-13T01:52:33.511Z,16.53
2018-09-13T01:53:33.554Z,16.56
2018-09-13T01:54:33.595Z,16.52
2018-09-13T01:55:33.639Z,16.56
2018-09-13T01:56:33.675Z,16.50
2018-09-13T01:57:33.717Z,16.50
2018-09-13T01:58:33.759Z,16.56
2018-09-13T01:59:33.801Z,16.68
2018-09-13T02:00:33.849Z,16.63
2018-09-13T02:01:33.881Z,16.58
2018-09-13T02:02:33.976Z,16.67
2018-09-13T02:03:33.964Z,16.53
2018-09-13T02:04:34.009Z,16.63
2018-09-13T02:05:34.046Z,16.58
2018-09-13T02:06:34.089Z,16.53
2018-09-13T02:07:34.132Z,16.63
2018-09-13T02:08:34.171Z,16.67
2018-09-13T02:09:34.213Z,16.63
2018-09-13T02:10:34.252Z,16.68
2018-09-13T02:11:34.295Z,16.58
2018-09-13T02:12:34.337Z,16.58
2018-09-13T02:13:34.377Z,16.67
2018-09-13T02:14:34.419Z,16.63
2018-09-13T02:15:34.463Z,16.66
2018-09-13T02:16:34.503Z,16.61
2018-09-13T02:17:34.542Z,16.71
2018-09-13T02:18:34.582Z,16.61
2018-09-13T02:19:34.623Z,16.56
2018-09-13T02:20:34.666Z,16.70
2018-09-13T02:21:34.706Z,16.66
2018-09-13T02:22:34.748Z,16.68
2018-09-13T02:23:34.790Z,16.70
2018-09-13T02:24:34.830Z,16.67
2018-09-13T02:25:34.872Z,16.68
2018-09-13T02:26:34.913Z,16.61
2018-09-13T02:27:34.954Z,16.63
2018-09-13T02:28:34.996Z,16.64
2018-09-13T02:29:35.038Z,16.70
2018-09-13T02:30:35.079Z,16.57
2018-09-13T02:31:35.121Z,16.57
2018-09-13T02:32:35.162Z,16.71
2018-09-13T02:33:35.202Z,16.60
2018-09-13T02:34:35.245Z,16.70
2018-09-13T02:35:35.285Z,16.75
2018-09-13T02:36:35.328Z,16.70
2018-09-13T02:37:35.367Z,16.70
2018-09-13T02:38:35.409Z,16.68
2018-09-13T02:39:35.449Z,16.70
2018-09-13T02:40:35.490Z,16.75
2018-09-13T02:41:35.531Z,16.75
2018-09-13T02:42:35.578Z,16.78
2018-09-13T02:43:35.614Z,16.76
2018-09-13T02:44:35.656Z,16.76
2018-09-13T02:45:35.697Z,16.73
2018-09-13T02:46:35.738Z,16.76
2018-09-13T02:47:35.786Z,16.76
2018-09-13T02:48:35.821Z,16.73
2018-09-13T02:49:35.863Z,16.83
2018-09-13T02:50:35.904Z,16.71
2018-09-13T02:51:35.946Z,16.81
2018-09-13T02:52:35.987Z,16.78
2018-09-13T02:53:36.034Z,16.71
2018-09-13T02:54:36.085Z,16.75
2018-09-13T02:55:36.111Z,16.68
2018-09-13T02:56:36.154Z,16.81
2018-09-13T02:57:36.193Z,16.78
2018-09-13T02:58:36.236Z,16.78
2018-09-13T02:59:36.278Z,16.78
2018-09-13T03:00:36.320Z,16.81
2018-09-13T03:01:36.359Z,16.86
2018-09-13T03:02:36.401Z,16.85
2018-09-13T03:03:36.442Z,16.82
2018-09-13T03:04:36.483Z,16.83
2018-09-13T03:05:36.527Z,16.82
2018-09-13T03:06:36.564Z,16.79
2018-09-13T03:07:36.611Z,16.75
2018-09-13T03:08:36.649Z,16.78
2018-09-13T03:09:36.688Z,16.78
2018-09-13T03:10:36.730Z,16.73
2018-09-13T03:11:36.772Z,16.76
2018-09-13T03:12:36.813Z,16.73
2018-09-13T03:13:36.854Z,16.76
2018-09-13T03:14:36.894Z,16.79
2018-09-13T03:15:36.941Z,16.68
2018-09-13T03:16:36.986Z,16.76
2018-09-13T03:17:37.021Z,16.78
2018-09-13T03:18:37.067Z,16.79
2018-09-13T03:19:37.101Z,16.75
2018-09-13T03:20:37.143Z,16.75
2018-09-13T03:21:37.185Z,16.79
2018-09-13T03:22:37.225Z,16.78
2018-09-13T03:23:37.269Z,16.78
2018-09-13T03:24:37.309Z,16.82
2018-09-13T03:25:37.350Z,16.83
2018-09-13T03:26:37.391Z,16.83
2018-09-13T03:27:37.437Z,16.89
2018-09-13T03:28:37.475Z,16.83
2018-09-13T03:29:37.521Z,16.79
2018-09-13T03:30:37.559Z,16.83
2018-09-13T03:31:37.602Z,16.82
2018-09-13T03:32:37.642Z,16.83
2018-09-13T03:33:37.682Z,16.88
2018-09-13T03:34:37.723Z,16.83
2018-09-13T03:35:37.763Z,16.83
2018-09-13T03:36:37.906Z,16.82
2018-09-13T03:37:37.861Z,16.83
2018-09-13T03:38:37.887Z,16.82
2018-09-13T03:39:37.931Z,16.88
2018-09-13T03:40:37.970Z,16.82
2018-09-13T03:41:38.013Z,16.76
2018-09-13T03:42:38.052Z,16.81
2018-09-13T03:43:38.095Z,16.81
2018-09-13T03:44:38.137Z,16.76
2018-09-13T03:45:38.196Z,16.83
2018-09-13T03:46:38.219Z,16.73
2018-09-13T03:47:38.261Z,16.75
2018-09-13T03:48:38.303Z,16.68
2018-09-13T03:49:38.344Z,16.73
2018-09-13T03:50:38.384Z,16.81
2018-09-13T03:51:38.426Z,16.75
2018-09-13T03:52:38.469Z,16.67
2018-09-13T03:53:38.515Z,16.68
2018-09-13T03:54:38.552Z,16.70
2018-09-13T03:55:38.594Z,16.68
2018-09-13T03:56:38.633Z,16.56
2018-09-13T03:57:38.674Z,16.67
2018-09-13T03:58:38.718Z,16.71
2018-09-13T03:59:38.757Z,16.66
2018-09-13T04:00:38.798Z,16.67
2018-09-13T04:01:38.846Z,16.66
2018-09-13T04:02:38.887Z,16.66
2018-09-13T04:03:38.934Z,16.66
2018-09-13T04:04:38.965Z,16.60
2018-09-13T04:05:39.005Z,16.67
2018-09-13T04:06:39.047Z,16.64
2018-09-13T04:07:39.087Z,16.58
2018-09-13T04:08:39.129Z,16.66
2018-09-13T04:09:39.171Z,16.63
2018-09-13T04:10:39.226Z,16.67
2018-09-13T04:11:39.253Z,16.66
2018-09-13T04:12:39.294Z,16.68
2018-09-13T04:13:39.334Z,16.66
2018-09-13T04:14:39.376Z,16.67
2018-09-13T04:15:39.420Z,16.60
2018-09-13T04:16:39.459Z,16.61
2018-09-13T04:17:39.500Z,16.58
2018-09-13T04:18:39.557Z,16.63
2018-09-13T04:19:39.584Z,16.63
2018-09-13T04:20:39.822Z,16.57
2018-09-13T04:21:39.665Z,16.60
2018-09-13T04:22:39.754Z,16.61
2018-09-13T04:23:39.749Z,16.60
2018-09-13T04:24:39.794Z,16.52
2018-09-13T04:25:39.831Z,16.56
2018-09-13T04:26:39.873Z,16.52
2018-09-13T04:27:39.916Z,16.52
2018-09-13T04:28:39.962Z,16.49
2018-09-13T04:29:39.997Z,16.42
2018-09-13T04:30:40.146Z,16.52
2018-09-13T04:31:40.080Z,16.43
2018-09-13T04:32:40.120Z,16.46
2018-09-13T04:33:40.172Z,16.48
2018-09-13T04:34:40.206Z,16.43
2018-09-13T04:35:40.283Z,16.42
2018-09-13T04:36:40.293Z,16.48
2018-09-13T04:37:40.335Z,16.39
2018-09-13T04:38:40.367Z,16.46
2018-09-13T04:39:40.420Z,16.45
2018-09-13T04:40:40.461Z,16.48
2018-09-13T04:41:40.492Z,16.43
2018-09-13T04:42:40.531Z,16.39
2018-09-13T04:43:40.574Z,16.41
2018-09-13T04:44:40.618Z,16.45
2018-09-13T04:45:40.657Z,16.48
2018-09-13T04:46:40.710Z,16.41
2018-09-13T04:47:40.739Z,16.48
2018-09-13T04:48:40.792Z,16.45
2018-09-13T04:49:40.874Z,16.46
2018-09-13T04:50:40.863Z,16.39
2018-09-13T04:51:40.905Z,16.31
2018-09-13T04:52:40.947Z,16.46
2018-09-13T04:53:40.989Z,16.43
2018-09-13T04:54:41.032Z,16.35
2018-09-13T04:55:41.072Z,16.41
2018-09-13T04:56:41.114Z,16.35
2018-09-13T04:57:41.153Z,16.38
2018-09-13T04:58:41.195Z,16.34
2018-09-13T04:59:41.236Z,16.39
2018-09-13T05:00:41.277Z,16.39
2018-09-13T05:01:41.331Z,16.34
2018-09-13T05:02:41.358Z,16.41
2018-09-13T05:03:41.402Z,16.45
2018-09-13T05:04:41.448Z,16.41
2018-09-13T05:05:41.483Z,16.43
2018-09-13T05:06:41.643Z,16.39
2018-09-13T05:07:41.568Z,16.38
2018-09-13T05:08:41.609Z,16.39
2018-09-13T05:09:41.648Z,16.34
2018-09-13T05:10:41.693Z,16.39
2018-09-13T05:11:41.734Z,16.41
2018-09-13T05:12:41.825Z,16.39
2018-09-13T05:13:41.813Z,16.43
2018-09-13T05:14:41.853Z,16.31
2018-09-13T05:15:41.896Z,16.38
2018-09-13T05:16:41.941Z,16.38
2018-09-13T05:17:41.982Z,16.39
2018-09-13T05:18:42.020Z,16.41
2018-09-13T05:19:42.061Z,16.34
2018-09-13T05:20:42.103Z,16.43
2018-09-13T05:21:42.144Z,16.42
2018-09-13T05:22:42.183Z,16.43
2018-09-13T05:23:42.234Z,16.38
2018-09-13T05:24:42.268Z,16.39
2018-09-13T05:25:42.365Z,16.34
2018-09-13T05:26:42.349Z,16.42
2018-09-13T05:27:42.396Z,16.41
2018-09-13T05:28:42.433Z,16.38
2018-09-13T05:29:42.476Z,16.41
2018-09-13T05:30:42.514Z,16.33
2018-09-13T05:31:42.625Z,16.38
2018-09-13T05:32:42.598Z,16.35
2018-09-13T05:33:42.638Z,16.42
2018-09-13T05:34:42.679Z,16.38
2018-09-13T05:35:42.722Z,16.35
2018-09-13T05:36:42.762Z,16.38
2018-09-13T05:37:42.802Z,16.31
2018-09-13T05:38:42.851Z,16.48
2018-09-13T05:39:42.884Z,16.46
2018-09-13T05:40:42.927Z,16.42
2018-09-13T05:41:42.968Z,16.42
2018-09-13T05:42:43.017Z,16.42
2018-09-13T05:43:43.050Z,16.45
2018-09-13T05:44:43.167Z,16.42
2018-09-13T05:45:43.131Z,16.50
2018-09-13T05:46:43.231Z,16.46
2018-09-13T05:47:43.219Z,16.48
2018-09-13T05:48:43.258Z,16.49
2018-09-13T05:49:43.306Z,16.50
2018-09-13T05:50:43.348Z,16.50
2018-09-13T05:51:43.389Z,16.61
2018-09-13T05:52:43.431Z,16.60
2018-09-13T05:53:43.466Z,16.71
2018-09-13T05:54:43.506Z,16.71
2018-09-13T05:55:43.552Z,16.75
2018-09-13T05:56:43.587Z,16.81
2018-09-13T05:57:43.645Z,16.86
2018-09-13T05:58:43.669Z,16.73
2018-09-13T05:59:43.710Z,16.91
2018-09-13T06:00:43.753Z,16.89
2018-09-13T06:01:43.791Z,16.98
2018-09-13T06:02:43.838Z,17.04
2018-09-13T06:03:43.877Z,17.04
2018-09-13T06:04:43.916Z,16.94
2018-09-13T06:05:43.957Z,17.01
2018-09-13T06:06:43.999Z,17.00
2018-09-13T06:07:44.041Z,16.94
2018-09-13T06:08:44.082Z,17.00
2018-09-13T06:09:44.124Z,16.93
2018-09-13T06:10:44.165Z,17.04
2018-09-13T06:11:44.208Z,16.94
2018-09-13T06:12:44.247Z,17.00
2018-09-13T06:13:44.288Z,16.97
2018-09-13T06:14:44.328Z,16.91
2018-09-13T06:15:44.370Z,16.96
2018-09-13T06:16:44.413Z,17.00
2018-09-13T06:17:44.452Z,17.03
2018-09-13T06:18:44.497Z,16.96
2018-09-13T06:19:44.605Z,16.91
2018-09-13T06:20:44.581Z,17.01
2018-09-13T06:21:44.620Z,17.01
2018-09-13T06:22:44.662Z,17.04
2018-09-13T06:23:44.704Z,17.03
2018-09-13T06:24:44.745Z,17.12
2018-09-13T06:25:44.784Z,17.03
2018-09-13T06:26:44.826Z,17.01
2018-09-13T06:27:44.869Z,17.07
2018-09-13T06:28:44.910Z,17.07
2018-09-13T06:29:44.950Z,17.08
2018-09-13T06:30:44.993Z,17.04
2018-09-13T06:31:45.033Z,17.19
2018-09-13T06:32:45.075Z,17.16
2018-09-13T06:33:45.125Z,17.14
2018-09-13T06:34:45.158Z,17.19
2018-09-13T06:35:45.199Z,17.18
2018-09-13T06:36:45.241Z,17.19
2018-09-13T06:37:45.298Z,17.31
2018-09-13T06:38:45.325Z,17.34
2018-09-13T06:39:45.387Z,17.36
2018-09-13T06:40:45.408Z,17.41
2018-09-13T06:41:45.449Z,17.40
2018-09-13T06:42:45.492Z,17.46
2018-09-13T06:43:45.532Z,17.48
2018-09-13T06:44:45.575Z,17.51
2018-09-13T06:45:45.615Z,17.52
2018-09-13T06:46:45.657Z,17.44
2018-09-13T06:47:45.699Z,17.52
2018-09-13T06:48:45.746Z,17.51
2018-09-13T06:49:45.790Z,17.48
2018-09-13T06:50:45.824Z,17.51
2018-09-13T06:51:45.869Z,17.56
2018-09-13T06:52:45.908Z,17.55
2018-09-13T06:53:45.954Z,17.52
2018-09-13T06:54:45.991Z,17.63
2018-09-13T06:55:46.033Z,17.52
2018-09-13T06:56:46.074Z,17.70
2018-09-13T06:57:46.116Z,17.51
2018-09-13T06:58:46.157Z,17.46
2018-09-13T06:59:46.199Z,17.52
2018-09-13T07:00:46.246Z,17.56
2018-09-13T07:01:46.282Z,17.66
2018-09-13T07:02:46.331Z,17.55
2018-09-13T07:03:46.370Z,17.54
2018-09-13T07:04:46.408Z,17.68
2018-09-13T07:05:46.448Z,17.71
2018-09-13T07:06:46.493Z,17.64
2018-09-13T07:07:46.531Z,17.63
2018-09-13T07:08:46.573Z,17.59
2018-09-13T07:09:46.622Z,17.70
2018-09-13T07:10:46.708Z,17.77
2018-09-13T07:11:46.707Z,17.81
2018-09-13T07:12:46.748Z,18.02
2018-09-13T07:13:46.782Z,18.03
2018-09-13T07:14:46.826Z,18.17
2018-09-13T07:15:46.866Z,18.08
2018-09-13T07:16:46.908Z,18.12
2018-09-13T07:17:46.954Z,18.00
2018-09-13T07:18:46.991Z,18.14
2018-09-13T07:19:47.037Z,18.20
2018-09-13T07:20:47.076Z,18.21
2018-09-13T07:21:47.115Z,18.18
2018-09-13T07:22:47.167Z,18.39
2018-09-13T07:23:47.204Z,18.20
2018-09-13T07:24:47.248Z,18.29
2018-09-13T07:25:47.283Z,18.33
2018-09-13T07:26:47.326Z,18.44
2018-09-13T07:27:47.368Z,18.42
2018-09-13T07:28:47.409Z,18.45
2018-09-13T07:29:47.451Z,18.45
2018-09-13T07:30:47.497Z,18.45
2018-09-13T07:31:47.534Z,18.50
2018-09-13T07:32:47.578Z,18.54
2018-09-13T07:33:47.619Z,18.60
2018-09-13T07:34:47.661Z,18.72
2018-09-13T07:35:47.704Z,18.75
2018-09-13T07:36:47.813Z,18.90
2018-09-13T07:37:47.787Z,18.90
2018-09-13T07:38:47.830Z,18.92
2018-09-13T07:39:47.871Z,19.04
2018-09-13T07:40:47.914Z,19.23
2018-09-13T07:41:47.957Z,18.95
2018-09-13T07:42:48.019Z,19.02
2018-09-13T07:43:48.040Z,19.13
2018-09-13T07:44:48.080Z,19.18
2018-09-13T07:45:48.124Z,19.18
2018-09-13T07:46:48.171Z,18.91
2018-09-13T07:47:48.210Z,18.85
2018-09-13T07:48:48.254Z,18.87
2018-09-13T07:49:48.461Z,18.82
2018-09-13T07:50:48.337Z,18.73
2018-09-13T07:51:48.379Z,18.80
2018-09-13T07:52:48.420Z,18.73
2018-09-13T07:53:48.463Z,18.72
2018-09-13T07:54:48.503Z,18.57
2018-09-13T07:55:48.636Z,18.69
2018-09-13T07:56:48.588Z,18.67
2018-09-13T07:57:48.631Z,18.67
2018-09-13T07:58:48.678Z,18.82
2018-09-13T07:59:48.714Z,18.92
2018-09-13T08:00:48.756Z,18.80
2018-09-13T08:01:48.798Z,18.75
2018-09-13T08:02:48.843Z,18.69
2018-09-13T08:03:48.884Z,18.81
2018-09-13T08:04:48.926Z,18.84
2018-09-13T08:05:48.967Z,18.92
2018-09-13T08:06:49.009Z,19.04
2018-09-13T08:07:49.052Z,19.04
2018-09-13T08:08:49.097Z,18.94
2018-09-13T08:09:49.137Z,19.08
2018-09-13T08:10:49.177Z,19.14
2018-09-13T08:11:49.290Z,19.11
2018-09-13T08:12:49.264Z,19.18
2018-09-13T08:13:49.306Z,19.28
2018-09-13T08:14:49.349Z,19.23
2018-09-13T08:15:49.434Z,19.26
2018-09-13T08:16:49.434Z,19.31
2018-09-13T08:17:49.475Z,19.43
2018-09-13T08:18:49.574Z,19.41
2018-09-13T08:19:49.561Z,19.43
2018-09-13T08:20:49.602Z,19.44
2018-09-13T08:21:49.718Z,19.48
2018-09-13T08:22:49.687Z,19.40
2018-09-13T08:23:49.729Z,19.40
2018-09-13T08:24:49.773Z,19.47
2018-09-13T08:25:49.813Z,19.40
2018-09-13T08:26:49.857Z,19.25
2018-09-13T08:27:49.898Z,19.22
2018-09-13T08:28:49.947Z,19.22
2018-09-13T08:29:49.985Z,19.11
2018-09-13T08:30:50.026Z,19.04
2018-09-13T08:31:50.069Z,19.10
2018-09-13T08:32:50.111Z,19.21
2018-09-13T08:33:50.153Z,19.10
2018-09-13T08:34:50.412Z,19.21
2018-09-13T08:35:50.242Z,19.23
2018-09-13T08:36:50.317Z,19.19
2018-09-13T08:37:50.324Z,19.13
2018-09-13T08:38:50.367Z,19.16
2018-09-13T08:39:50.456Z,19.22
2018-09-13T08:40:50.453Z,19.40
2018-09-13T08:41:50.493Z,19.33
2018-09-13T08:42:50.548Z,19.22
2018-09-13T08:43:50.587Z,19.19
2018-09-13T08:44:50.623Z,19.23
2018-09-13T08:45:50.665Z,19.41
2018-09-13T08:46:50.719Z,19.33
2018-09-13T08:47:50.753Z,19.23
2018-09-13T08:48:50.792Z,19.19
2018-09-13T08:49:50.844Z,19.18
2018-09-13T08:50:50.879Z,19.18
2018-09-13T08:51:50.922Z,19.21
2018-09-13T08:52:50.961Z,19.14
2018-09-13T08:53:51.002Z,19.06
2018-09-13T08:54:51.045Z,19.13
2018-09-13T08:55:51.089Z,19.10
2018-09-13T08:56:51.130Z,19.18
2018-09-13T08:57:51.182Z,19.21
2018-09-13T08:58:51.213Z,19.31
2018-09-13T08:59:51.259Z,19.39
2018-09-13T09:00:51.451Z,19.46
2018-09-13T09:01:51.341Z,19.47
2018-09-13T09:02:51.386Z,19.61
2018-09-13T09:03:51.426Z,19.43
2018-09-13T09:04:51.477Z,19.41
2018-09-13T09:05:51.511Z,19.37
2018-09-13T09:06:51.554Z,19.54
2018-09-13T09:07:51.600Z,19.36
2018-09-13T09:08:51.640Z,19.47
2018-09-13T09:09:51.681Z,19.47
2018-09-13T09:10:51.723Z,19.58
2018-09-13T09:11:51.829Z,19.61
2018-09-13T09:12:51.812Z,19.48
2018-09-13T09:13:51.858Z,19.41
2018-09-13T09:14:51.894Z,19.41
2018-09-13T09:15:51.938Z,19.47
2018-09-13T09:16:51.979Z,19.47
2018-09-13T09:17:52.026Z,19.66
2018-09-13T09:18:52.064Z,19.74
2018-09-13T09:19:52.106Z,19.81
2018-09-13T09:20:52.148Z,19.99
2018-09-13T09:21:52.191Z,20.02
2018-09-13T09:22:52.234Z,20.02
2018-09-13T09:23:52.275Z,19.98
2018-09-13T09:24:52.317Z,19.99
2018-09-13T09:25:52.361Z,20.08
2018-09-13T09:26:52.402Z,19.95
2018-09-13T09:27:52.446Z,20.05
2018-09-13T09:28:52.552Z,20.10
2018-09-13T09:29:52.619Z,20.17
2018-09-13T09:30:52.573Z,20.29
2018-09-13T09:31:52.622Z,20.48
2018-09-13T09:32:52.662Z,20.38
2018-09-13T09:33:52.703Z,20.55
2018-09-13T09:34:52.900Z,20.66
2018-09-13T09:35:52.798Z,20.64
2018-09-13T09:36:52.831Z,20.58
2018-09-13T09:37:52.872Z,20.64
2018-09-13T09:38:52.916Z,20.62
2018-09-13T09:39:52.986Z,20.70
2018-09-13T09:40:53.002Z,20.66
2018-09-13T09:41:53.048Z,20.67
2018-09-13T09:42:53.091Z,20.74
2018-09-13T09:43:53.132Z,20.66
2018-09-13T09:44:53.183Z,20.74
2018-09-13T09:45:53.221Z,20.85
2018-09-13T09:46:53.260Z,21.04
2018-09-13T09:47:53.307Z,21.21
2018-09-13T09:48:53.346Z,21.38
2018-09-13T09:49:53.388Z,21.42
2018-09-13T09:50:53.430Z,21.47
2018-09-13T09:51:53.512Z,21.61
2018-09-13T09:52:53.517Z,21.37
2018-09-13T09:53:53.559Z,21.22
2018-09-13T09:54:53.608Z,21.29
2018-09-13T09:55:53.646Z,21.25
2018-09-13T09:56:53.691Z,21.25
2018-09-13T09:57:53.785Z,21.17
2018-09-13T09:58:53.779Z,21.40
2018-09-13T09:59:53.819Z,21.42
2018-09-13T10:00:53.863Z,21.58
2018-09-13T10:01:53.915Z,21.67
2018-09-13T10:02:53.977Z,21.91
2018-09-13T10:03:53.994Z,21.83
2018-09-13T10:04:54.038Z,21.69
2018-09-13T10:05:54.079Z,21.79
2018-09-13T10:06:54.125Z,21.94
2018-09-13T10:07:54.167Z,21.96
2018-09-13T10:08:54.213Z,21.91
2018-09-13T10:09:54.253Z,21.92
2018-09-13T10:10:54.297Z,22.02
2018-09-13T10:11:54.346Z,21.67
2018-09-13T10:12:54.386Z,21.91
2018-09-13T10:13:54.440Z,21.94
2018-09-13T10:14:54.472Z,21.82
2018-09-13T10:15:54.517Z,21.75
2018-09-13T10:16:54.559Z,21.92
2018-09-13T10:17:54.602Z,21.96
2018-09-13T10:18:54.647Z,21.94
2018-09-13T10:19:54.699Z,21.94
2018-09-13T10:20:54.733Z,22.05
2018-09-13T10:21:54.785Z,21.83
2018-09-13T10:22:54.831Z,21.82
2018-09-13T10:23:54.919Z,21.72
2018-09-13T10:24:54.908Z,21.64
2018-09-13T10:25:54.953Z,21.54
2018-09-13T10:26:55.033Z,21.54
2018-09-13T10:27:55.040Z,21.40
2018-09-13T10:28:55.083Z,21.24
2018-09-13T10:29:55.127Z,21.21
2018-09-13T10:30:55.171Z,21.19
2018-09-13T10:31:55.215Z,21.04
2018-09-13T10:32:55.257Z,21.01
2018-09-13T10:33:55.301Z,21.01
2018-09-13T10:34:55.352Z,21.07
2018-09-13T10:35:55.393Z,21.16
2018-09-13T10:36:55.433Z,21.12
2018-09-13T10:37:55.479Z,21.22
2018-09-13T10:38:55.522Z,21.17
2018-09-13T10:39:55.565Z,21.16
2018-09-13T10:40:55.609Z,21.17
2018-09-13T10:41:55.650Z,21.14
2018-09-13T10:42:55.706Z,21.38
2018-09-13T10:43:55.744Z,21.44
2018-09-13T10:44:55.782Z,21.50
2018-09-13T10:45:55.836Z,21.49
2018-09-13T10:46:55.876Z,21.54
2018-09-13T10:47:56.925Z,21.40
2018-09-13T10:48:55.956Z,21.59
2018-09-13T10:49:56.000Z,21.64
2018-09-13T10:50:56.043Z,21.58
2018-09-13T10:51:56.086Z,21.56
2018-09-13T10:52:56.131Z,21.64
2018-09-13T10:53:56.173Z,21.62
2018-09-13T10:54:56.217Z,21.65
2018-09-13T10:55:56.305Z,21.56
2018-09-13T10:56:56.306Z,21.58
2018-09-13T10:57:56.348Z,21.44
2018-09-13T10:58:56.406Z,21.35
2018-09-13T10:59:56.436Z,21.31
2018-09-13T11:00:56.478Z,21.24
2018-09-13T11:01:56.535Z,21.12
2018-09-13T11:02:56.566Z,20.97
2018-09-13T11:03:56.619Z,20.91
2018-09-13T11:04:56.653Z,20.95
2018-09-13T11:05:56.696Z,20.87
2018-09-13T11:06:56.741Z,20.70
2018-09-13T11:07:56.785Z,20.74
2018-09-13T11:08:56.827Z,20.67
2018-09-13T11:09:56.878Z,20.72
2018-09-13T11:10:57.138Z,20.79
2018-09-13T11:11:56.956Z,20.85
2018-09-13T11:12:57.008Z,20.82
2018-09-13T11:13:57.042Z,20.84
2018-09-13T11:14:57.089Z,20.85
2018-09-13T11:15:57.129Z,20.95
2018-09-13T11:16:57.176Z,21.03
2018-09-13T11:17:57.215Z,21.03
2018-09-13T11:18:57.267Z,21.09
2018-09-13T11:19:57.302Z,21.13
2018-09-13T11:20:57.395Z,21.12
2018-09-13T11:21:57.394Z,21.17
2018-09-13T11:22:57.432Z,21.13
2018-09-13T11:23:57.475Z,21.04
2018-09-13T11:24:57.520Z,20.89
2018-09-13T11:25:57.562Z,20.77
2018-09-13T11:26:57.604Z,20.79
2018-09-13T11:27:57.655Z,20.80
2018-09-13T11:28:57.690Z,20.82
2018-09-13T11:29:57.733Z,20.74
2018-09-13T11:30:57.779Z,20.70
2018-09-13T11:31:57.820Z,20.87
2018-09-13T11:32:57.867Z,20.73
2018-09-13T11:33:57.908Z,20.70
2018-09-13T11:34:57.951Z,20.84
2018-09-13T11:35:57.999Z,20.87
2018-09-13T11:36:58.037Z,21.14
2018-09-13T11:37:58.080Z,21.22
2018-09-13T11:38:58.124Z,21.38
2018-09-13T11:39:58.268Z,21.46
2018-09-13T11:40:58.513Z,21.52
2018-09-13T11:41:58.262Z,21.52
2018-09-13T11:42:58.302Z,21.54
2018-09-13T11:43:58.339Z,21.50
2018-09-13T11:44:58.381Z,21.43
2018-09-13T11:45:58.423Z,21.56
2018-09-13T11:46:58.467Z,21.62
2018-09-13T11:47:58.512Z,21.64
2018-09-13T11:48:58.564Z,21.86
2018-09-13T11:49:58.597Z,21.92
2018-09-13T11:50:58.641Z,21.99
2018-09-13T11:51:58.687Z,22.00
2018-09-13T11:52:58.729Z,21.99
2018-09-13T11:53:58.808Z,22.06
2018-09-13T11:54:58.821Z,22.22
2018-09-13T11:55:58.858Z,22.00
2018-09-13T11:56:58.905Z,22.12
2018-09-13T11:57:58.944Z,22.15
2018-09-13T11:58:58.989Z,22.10
2018-09-13T11:59:59.030Z,22.14
2018-09-13T12:00:59.078Z,22.21
2018-09-13T12:01:59.176Z,22.30
2018-09-13T12:02:59.163Z,22.40
2018-09-13T12:03:59.208Z,22.47
2018-09-13T12:04:59.258Z,22.51
2018-09-13T12:05:59.293Z,22.25
2018-09-13T12:06:59.336Z,22.15
2018-09-13T12:07:59.381Z,21.96
2018-09-13T12:08:59.429Z,21.92
2018-09-13T12:09:59.467Z,21.83
2018-09-13T12:10:59.511Z,21.67
2018-09-13T12:11:59.562Z,21.64
2018-09-13T12:12:59.598Z,21.72
2018-09-13T12:13:59.676Z,21.65
2018-09-13T12:14:59.703Z,21.72
2018-09-13T12:15:59.730Z,21.83
2018-09-13T12:16:59.777Z,21.88
2018-09-13T12:17:59.935Z,21.69
2018-09-13T12:18:59.864Z,21.67
2018-09-13T12:19:59.904Z,21.69
2018-09-13T12:20:59.948Z,21.74
2018-09-13T12:21:59.990Z,21.59
2018-09-13T12:23:00.043Z,21.47
2018-09-13T12:24:00.086Z,21.38
2018-09-13T12:25:00.124Z,21.34
2018-09-13T12:26:00.165Z,21.34
2018-09-13T12:27:00.211Z,21.22
2018-09-13T12:28:00.256Z,21.32
2018-09-13T12:29:00.302Z,21.35
2018-09-13T12:30:00.342Z,21.32
2018-09-13T12:31:00.386Z,21.47
2018-09-13T12:32:00.428Z,21.53
2018-09-13T12:33:00.468Z,21.56
2018-09-13T12:34:00.515Z,21.40
2018-09-13T12:35:00.571Z,21.31
2018-09-13T12:36:00.599Z,21.22
2018-09-13T12:37:00.648Z,21.32
2018-09-13T12:38:00.686Z,21.32
2018-09-13T12:39:00.729Z,21.19
2018-09-13T12:40:00.772Z,20.97
2018-09-13T12:41:00.816Z,20.98
2018-09-13T12:42:00.862Z,20.87
2018-09-13T12:43:00.912Z,20.95
2018-09-13T12:44:00.946Z,20.97
2018-09-13T12:45:00.997Z,20.84
2018-09-13T12:46:01.037Z,20.79
2018-09-13T12:47:01.090Z,20.84
2018-09-13T12:48:01.127Z,20.85
2018-09-13T12:49:01.163Z,20.94
2018-09-13T12:50:01.254Z,20.97
2018-09-13T12:51:01.250Z,21.13
2018-09-13T12:52:01.291Z,21.16
2018-09-13T12:53:01.334Z,20.97